Kliftrans — PCDB — position and weather

sailwx.info

Track history (hours):
 
Tides and Currents Weather Stations Pressure Air Temp Water Temp Dewpoint Dewpoint Depression Visibility Wind Speed Wind Dir Waves Ship Positions

Kliftrans

Last reported at 2016-Dec-04 05:33 UTC. Time now 2016-Dec-04 20:29 UTC.
Position N 54°27' W 000°26'.

Length 32 m; draft 6.5 m.

Type: Tug. MMSI: 244890607.

Date/timePositionNaut miles runAvg speedWind from/ knotsBaromVisibWave heightAir tempDewpointWater temp
2016-Dec-04 05:33N 54°27' W 000°26'9 8.7
2016-Dec-04 04:33N 54°21' W 000°16'9 9.3
2016-Dec-04 03:33N 54°14' W 000°05'1010.1
2016-Dec-04 02:33N 54°07' E 000°07'71 9.8
2016-Dec-03 19:19N 53°15' E 001°30'7 8.8
2016-Dec-03 18:33N 53°09' E 001°32'10 9.8
2016-Dec-03 17:33N 52°59' E 001°34'6 5.6
2016-Dec-03 16:33N 52°55' E 001°41'8510.1
2016-Dec-03 08:09N 51°46' E 003°01'811.0
2016-Dec-03 07:25N 51°43' E 003°13'910.7
2016-Dec-03 06:33N 51°36' E 003°23'1211.6
2016-Dec-03 05:33N 51°27' E 003°34'4 4.4
2016-Dec-03 04:33N 51°28' E 003°40'0 0.0
2016-Dec-03 03:33N 51°28' E 003°40'0 0.0
2016-Dec-03 02:33N 51°28' E 003°40'0 0.0
2016-Dec-03 01:33N 51°28' E 003°40'0 0.0
2016-Dec-03 00:33N 51°28' E 003°40'0 0.0
2016-Dec-02 23:33N 51°28' E 003°40'0 0.0
2016-Dec-02 22:33N 51°28' E 003°40'0 0.0
2016-Dec-02 21:33N 51°28' E 003°40'0 0.0
2016-Dec-02 20:33N 51°28' E 003°40'0 0.0
2016-Dec-02 19:33N 51°28' E 003°40'0 0.0
2016-Dec-02 18:33N 51°28' E 003°40'0 0.0
2016-Dec-02 17:33N 51°28' E 003°40'0 0.0
2016-Dec-02 16:33N 51°28' E 003°40'0 0.0
2016-Dec-02 15:33N 51°28' E 003°40'0 0.0
2016-Dec-02 14:33N 51°28' E 003°40'1 1.1
2016-Dec-02 13:33N 51°28' E 003°42'0 0.5
2016-Dec-02 12:33N 51°28' E 003°43'2 1.8
2016-Dec-02 11:33N 51°27' E 003°40'0 0.4
2016-Dec-02 10:33N 51°28' E 003°40'0 0.0
2016-Dec-02 09:33N 51°28' E 003°40'0 0.0
2016-Dec-02 08:33N 51°28' E 003°40'0 0.0
2016-Dec-02 07:33N 51°28' E 003°40'0 0.0
2016-Dec-02 06:33N 51°28' E 003°40'0 0.0
2016-Dec-02 05:33N 51°28' E 003°40'0 0.0
2016-Dec-02 04:33N 51°28' E 003°40'1 0.6
2016-Dec-02 03:33N 51°28' E 003°41'0 0.2
2016-Dec-02 02:33N 51°28' E 003°41'7 7.1
2016-Dec-02 01:33N 51°21' E 003°47'2 1.7
2016-Dec-02 00:33N 51°20' E 003°49'0 0.0
2016-Dec-01 23:33N 51°20' E 003°49'0 0.0
2016-Dec-01 22:33N 51°20' E 003°49'1 0.7
2016-Dec-01 21:34N 51°20' E 003°49'1 0.9
2016-Dec-01 20:33N 51°19' E 003°50'8 7.7
2016-Dec-01 19:33N 51°11' E 003°48'1 0.8
2016-Dec-01 18:34N 51°12' E 003°48'5 5.2
2016-Dec-01 17:34N 51°17' E 003°50'2 2.2
2016-Dec-01 16:34N 51°19' E 003°50'1 1.1
2016-Dec-01 15:33N 51°20' E 003°49'2 1.6
2016-Dec-01 14:33N 51°21' E 003°51'0 0.5
2016-Dec-01 13:33N 51°21' E 003°52'2 2.1
2016-Dec-01 12:33N 51°20' E 003°49'0 0.0
2016-Dec-01 11:33N 51°20' E 003°49'0 0.0
2016-Dec-01 10:33N 51°20' E 003°49'0 0.0
2016-Dec-01 09:33N 51°20' E 003°49'0 0.0
2016-Dec-01 08:33N 51°20' E 003°49'0 0.0
2016-Dec-01 07:33N 51°20' E 003°49'0 0.0
2016-Dec-01 06:33N 51°20' E 003°49'0 0.0
2016-Dec-01 05:33N 51°20' E 003°49'0 0.0
2016-Dec-01 04:33N 51°20' E 003°49'0 0.0
2016-Dec-01 03:33N 51°20' E 003°49'0 0.0
2016-Dec-01 02:33N 51°20' E 003°49'0 0.0
2016-Dec-01 01:33N 51°20' E 003°49'0 0.0
2016-Dec-01 00:33N 51°20' E 003°49'0 0.0
2016-Nov-30 23:33N 51°20' E 003°49'1 0.7
2016-Nov-30 22:33N 51°20' E 003°49'2 2.3
2016-Nov-30 21:33N 51°17' E 003°50'7 6.6
2016-Nov-30 20:33N 51°11' E 003°48'2 1.9
2016-Nov-30 19:33N 51°09' E 003°47'4 4.2
2016-Nov-30 18:33N 51°13' E 003°48'5 4.6
2016-Nov-30 17:34N 51°18' E 003°50'1 1.2
2016-Nov-30 16:33N 51°19' E 003°50'0 0.2
2016-Nov-30 15:33N 51°19' E 003°50'1 0.9
2016-Nov-30 14:33N 51°20' E 003°49'2 2.1
2016-Nov-30 13:33N 51°21' E 003°46'2 1.8
2016-Nov-30 12:33N 51°20' E 003°49'0 0.0
2016-Nov-30 11:33N 51°20' E 003°49'0 0.0
2016-Nov-30 10:33N 51°20' E 003°49'0 0.0
2016-Nov-30 09:33N 51°20' E 003°49'0 0.0
2016-Nov-30 08:33N 51°20' E 003°49'1 0.5
2016-Nov-30 07:33N 51°20' E 003°49'2 1.9
2016-Nov-30 06:33N 51°18' E 003°50'7 6.8
2016-Nov-30 05:33N 51°11' E 003°48'0 0.5
2016-Nov-30 04:33N 51°12' E 003°48'5 5.1
2016-Nov-30 03:33N 51°17' E 003°50'3 3.3
2016-Nov-30 02:33N 51°20' E 003°49'2 1.5
2016-Nov-30 01:33N 51°21' E 003°51'1 1.4
2016-Nov-30 00:33N 51°20' E 003°49'0 0.0
2016-Nov-29 23:33N 51°20' E 003°49'0 0.0
2016-Nov-29 22:33N 51°20' E 003°49'0 0.0
2016-Nov-29 21:33N 51°20' E 003°49'0 0.0
2016-Nov-29 20:33N 51°20' E 003°49'0 0.0
2016-Nov-29 19:33N 51°20' E 003°49'0 0.0
2016-Nov-29 18:33N 51°20' E 003°49'0 0.0
2016-Nov-29 17:33N 51°20' E 003°49'2 1.7
2016-Nov-29 16:33N 51°21' E 003°52'0 0.1
2016-Nov-29 15:33N 51°21' E 003°51'1 0.8
2016-Nov-29 14:33N 51°20' E 003°50'1 1.1
2016-Nov-29 13:33N 51°20' E 003°49'1 1.3
2016-Nov-29 12:33N 51°19' E 003°50'0 0.3
2016-Nov-29 11:33N 51°19' E 003°50'1 1.1
2016-Nov-29 10:33N 51°20' E 003°49'1 0.8
2016-Nov-29 09:33N 51°19' E 003°50'3 2.7
2016-Nov-29 08:33N 51°17' E 003°51'1 0.8
2016-Nov-29 07:33N 51°16' E 003°50'7 6.5
2016-Nov-29 06:33N 51°10' E 003°47'0 0.4
2016-Nov-29 05:33N 51°10' E 003°48'6 6.3
2016-Nov-29 04:33N 51°16' E 003°50'4 3.8
2016-Nov-29 03:33N 51°20' E 003°49'2 2.2
2016-Nov-29 02:33N 51°21' E 003°46'2 1.9
2016-Nov-29 01:33N 51°20' E 003°49'0 0.0
2016-Nov-29 00:33N 51°20' E 003°49'0 0.0
2016-Nov-28 23:33N 51°20' E 003°49'0 0.0
2016-Nov-28 22:33N 51°20' E 003°49'0 0.0
2016-Nov-28 21:33N 51°20' E 003°49'0 0.0
2016-Nov-28 20:33N 51°20' E 003°49'0 0.0
2016-Nov-28 19:33N 51°20' E 003°49'0 0.0
2016-Nov-28 18:33N 51°20' E 003°49'0 0.0
2016-Nov-28 17:33N 51°20' E 003°49'0 0.0
2016-Nov-28 16:33N 51°20' E 003°49'0 0.0
2016-Nov-28 15:33N 51°20' E 003°49'0 0.0
2016-Nov-28 14:33N 51°20' E 003°49'8 8.1
2016-Nov-28 13:33N 51°26' E 003°40'1 1.2
2016-Nov-28 12:33N 51°27' E 003°41'0 0.2
2016-Nov-28 11:33N 51°28' E 003°41'0 0.0
2016-Nov-28 10:33N 51°28' E 003°41'0 0.0
2016-Nov-28 09:33N 51°28' E 003°41'0 0.0
2016-Nov-28 08:33N 51°28' E 003°41'0 0.0
2016-Nov-28 07:33N 51°28' E 003°41'0 0.0
2016-Nov-28 06:33N 51°28' E 003°41'0 0.2
2016-Nov-28 05:33N 51°27' E 003°41'3 3.3
2016-Nov-28 04:33N 51°25' E 003°44'3 2.9
2016-Nov-28 03:33N 51°27' E 003°40'1 1.2
2016-Nov-28 02:33N 51°28' E 003°41'0 0.0
2016-Nov-28 01:33N 51°28' E 003°41'0 0.0
2016-Nov-28 00:33N 51°28' E 003°41'0 0.0
2016-Nov-27 23:33N 51°28' E 003°41'0 0.0
2016-Nov-27 22:33N 51°28' E 003°41'0 0.0
2016-Nov-27 21:33N 51°28' E 003°41'0 0.0
2016-Nov-27 20:33N 51°28' E 003°41'0 0.0
2016-Nov-27 19:33N 51°28' E 003°41'0 0.0
2016-Nov-27 18:30N 51°28' E 003°41'0 0.0
2016-Nov-27 17:33N 51°28' E 003°41'0 0.0
2016-Nov-27 16:33N 51°28' E 003°41'0 0.0
2016-Nov-27 15:33N 51°28' E 003°41'0 0.0
2016-Nov-27 14:33N 51°28' E 003°41'0 0.0
2016-Nov-27 13:33N 51°28' E 003°41'0 0.0
2016-Nov-27 12:33N 51°28' E 003°41'0 0.0
2016-Nov-27 11:33N 51°28' E 003°41'0 0.0
2016-Nov-27 10:33N 51°28' E 003°41'0 0.0
2016-Nov-27 09:33N 51°28' E 003°41'0 0.0
2016-Nov-27 08:33N 51°28' E 003°41'0 0.0
2016-Nov-27 07:33N 51°28' E 003°41'0 0.0
2016-Nov-27 06:33N 51°28' E 003°41'0 0.0
2016-Nov-27 05:33N 51°28' E 003°41'0 0.0
2016-Nov-27 04:33N 51°28' E 003°41'0 0.0
2016-Nov-27 03:33N 51°28' E 003°41'0 0.0
2016-Nov-27 02:33N 51°28' E 003°41'0 0.0
2016-Nov-27 01:33N 51°28' E 003°41'0 0.0
2016-Nov-27 00:33N 51°28' E 003°41'0 0.0
2016-Nov-26 23:33N 51°28' E 003°41'0 0.0
2016-Nov-26 22:33N 51°28' E 003°41'0 0.0
2016-Nov-26 21:33N 51°28' E 003°41'0 0.0
2016-Nov-26 20:33N 51°28' E 003°41'0 0.0
2016-Nov-26 19:33N 51°28' E 003°41'0 0.0
2016-Nov-26 18:33N 51°28' E 003°41'0 0.0
2016-Nov-26 17:33N 51°28' E 003°41'0 0.0
2016-Nov-26 16:33N 51°28' E 003°41'0 0.0
2016-Nov-26 15:33N 51°28' E 003°41'0 0.0
2016-Nov-26 14:33N 51°28' E 003°41'0 0.0
2016-Nov-26 13:33N 51°28' E 003°41'0 0.0
2016-Nov-26 12:33N 51°28' E 003°41'0 0.0
2016-Nov-26 11:33N 51°28' E 003°41'0 0.0
2016-Nov-26 10:33N 51°28' E 003°41'0 0.0
2016-Nov-26 09:33N 51°28' E 003°41'0 0.0
2016-Nov-26 08:33N 51°28' E 003°41'0 0.0
2016-Nov-26 07:33N 51°28' E 003°41'0 0.0
2016-Nov-26 06:33N 51°28' E 003°41'0 0.0
2016-Nov-26 05:33N 51°28' E 003°41'0 0.0
2016-Nov-26 04:33N 51°28' E 003°41'0 0.0
2016-Nov-26 03:33N 51°28' E 003°41'0 0.0
2016-Nov-26 02:33N 51°28' E 003°41'0 0.0
2016-Nov-26 01:33N 51°28' E 003°41'0 0.0
2016-Nov-26 00:33N 51°28' E 003°41'0 0.0
2016-Nov-25 23:33N 51°28' E 003°41'0 0.0
2016-Nov-25 22:33N 51°28' E 003°41'1 1.3
2016-Nov-25 21:33N 51°28' E 003°43'1 1.2
2016-Nov-25 20:33N 51°28' E 003°41'0 0.1
2016-Nov-25 19:33N 51°28' E 003°41'0 0.0
2016-Nov-25 18:33N 51°28' E 003°41'2 1.8
2016-Nov-25 17:33N 51°27' E 003°44'0 0.0
2016-Nov-25 16:33N 51°27' E 003°44'2 1.7
2016-Nov-25 15:33N 51°27' E 003°41'0 0.2
2016-Nov-25 14:33N 51°28' E 003°41'0 0.1
2016-Nov-25 13:33N 51°28' E 003°40'0 0.3
2016-Nov-25 12:33N 51°27' E 003°40'0 0.3
2016-Nov-25 11:33N 51°28' E 003°40'0 0.0
2016-Nov-25 10:33N 51°28' E 003°40'0 0.0
2016-Nov-25 09:33N 51°28' E 003°40'1 1.4
2016-Nov-25 08:33N 51°29' E 003°42'1 1.4
2016-Nov-25 07:33N 51°28' E 003°40'0 0.0
2016-Nov-25 06:33N 51°28' E 003°40'0 0.0
2016-Nov-25 05:33N 51°28' E 003°40'0 0.0
2016-Nov-25 04:33N 51°28' E 003°40'0 0.0
2016-Nov-25 03:33N 51°28' E 003°40'0 0.0
2016-Nov-25 02:33N 51°28' E 003°40'0 0.0
2016-Nov-25 01:33N 51°28' E 003°40'2 1.7
2016-Nov-25 00:33N 51°27' E 003°43'2 1.7
2016-Nov-24 23:33N 51°28' E 003°40'0 0.0
2016-Nov-24 22:33N 51°28' E 003°40'0 0.0
2016-Nov-24 21:33N 51°28' E 003°40'0 0.0
2016-Nov-24 20:33N 51°28' E 003°40'0 0.0
2016-Nov-24 19:33N 51°28' E 003°40'0 0.0
2016-Nov-24 18:33N 51°28' E 003°40'0 0.0
2016-Nov-24 17:33N 51°28' E 003°40'0 0.0
2016-Nov-24 16:33N 51°28' E 003°40'0 0.0
2016-Nov-24 15:33N 51°28' E 003°40'0 0.0
2016-Nov-24 14:33N 51°28' E 003°40'0 0.0
2016-Nov-24 13:33N 51°28' E 003°40'0 0.0
2016-Nov-24 12:33N 51°28' E 003°40'1 1.4
2016-Nov-24 11:33N 51°28' E 003°42'1 1.4
2016-Nov-24 10:33N 51°28' E 003°40'0 0.0
2016-Nov-24 09:33N 51°28' E 003°40'0 0.3
2016-Nov-24 08:33N 51°28' E 003°41'1 0.7
2016-Nov-24 07:33N 51°27' E 003°40'1 0.6
2016-Nov-24 06:33N 51°28' E 003°40'1 1.4
2016-Nov-24 05:33N 51°27' E 003°43'  
Track history (hours):
 
Tides and Currents Weather Stations Pressure Air Temp Water Temp Dewpoint Dewpoint Depression Visibility Wind Speed Wind Dir Waves Ship Positions

Kliftrans

Last reported at 2016-Dec-04 05:33 UTC. Time now 2016-Dec-04 20:29 UTC.
Position N 54°27' W 000°26'.

Length 32 m; draft 6.5 m.

Type: Tug. MMSI: 244890607.

Date/timePositionNaut miles runAvg speedWind from/ knotsBaromVisibWave heightAir tempDewpointWater temp
2016-Dec-04 05:33N 54°27' W 000°26'9 8.7
2016-Dec-04 04:33N 54°21' W 000°16'9 9.3
2016-Dec-04 03:33N 54°14' W 000°05'1010.1
2016-Dec-04 02:33N 54°07' E 000°07'71 9.8
2016-Dec-03 19:19N 53°15' E 001°30'7 8.8
2016-Dec-03 18:33N 53°09' E 001°32'10 9.8
2016-Dec-03 17:33N 52°59' E 001°34'6 5.6
2016-Dec-03 16:33N 52°55' E 001°41'8510.1
2016-Dec-03 08:09N 51°46' E 003°01'811.0
2016-Dec-03 07:25N 51°43' E 003°13'910.7
2016-Dec-03 06:33N 51°36' E 003°23'1211.6
2016-Dec-03 05:33N 51°27' E 003°34'4 4.4
2016-Dec-03 04:33N 51°28' E 003°40'0 0.0
2016-Dec-03 03:33N 51°28' E 003°40'0 0.0
2016-Dec-03 02:33N 51°28' E 003°40'0 0.0
2016-Dec-03 01:33N 51°28' E 003°40'0 0.0
2016-Dec-03 00:33N 51°28' E 003°40'0 0.0
2016-Dec-02 23:33N 51°28' E 003°40'0 0.0
2016-Dec-02 22:33N 51°28' E 003°40'0 0.0
2016-Dec-02 21:33N 51°28' E 003°40'0 0.0
2016-Dec-02 20:33N 51°28' E 003°40'0 0.0
2016-Dec-02 19:33N 51°28' E 003°40'0 0.0
2016-Dec-02 18:33N 51°28' E 003°40'0 0.0
2016-Dec-02 17:33N 51°28' E 003°40'0 0.0
2016-Dec-02 16:33N 51°28' E 003°40'0 0.0
2016-Dec-02 15:33N 51°28' E 003°40'0 0.0
2016-Dec-02 14:33N 51°28' E 003°40'1 1.1
2016-Dec-02 13:33N 51°28' E 003°42'0 0.5
2016-Dec-02 12:33N 51°28' E 003°43'2 1.8
2016-Dec-02 11:33N 51°27' E 003°40'0 0.4
2016-Dec-02 10:33N 51°28' E 003°40'0 0.0
2016-Dec-02 09:33N 51°28' E 003°40'0 0.0
2016-Dec-02 08:33N 51°28' E 003°40'0 0.0
2016-Dec-02 07:33N 51°28' E 003°40'0 0.0
2016-Dec-02 06:33N 51°28' E 003°40'0 0.0
2016-Dec-02 05:33N 51°28' E 003°40'0 0.0
2016-Dec-02 04:33N 51°28' E 003°40'1 0.6
2016-Dec-02 03:33N 51°28' E 003°41'0 0.2
2016-Dec-02 02:33N 51°28' E 003°41'7 7.1
2016-Dec-02 01:33N 51°21' E 003°47'2 1.7
2016-Dec-02 00:33N 51°20' E 003°49'0 0.0
2016-Dec-01 23:33N 51°20' E 003°49'0 0.0
2016-Dec-01 22:33N 51°20' E 003°49'1 0.7
2016-Dec-01 21:34N 51°20' E 003°49'1 0.9
2016-Dec-01 20:33N 51°19' E 003°50'8 7.7
2016-Dec-01 19:33N 51°11' E 003°48'1 0.8
2016-Dec-01 18:34N 51°12' E 003°48'5 5.2
2016-Dec-01 17:34N 51°17' E 003°50'2 2.2
2016-Dec-01 16:34N 51°19' E 003°50'1 1.1
2016-Dec-01 15:33N 51°20' E 003°49'2 1.6
2016-Dec-01 14:33N 51°21' E 003°51'0 0.5
2016-Dec-01 13:33N 51°21' E 003°52'2 2.1
2016-Dec-01 12:33N 51°20' E 003°49'0 0.0
2016-Dec-01 11:33N 51°20' E 003°49'0 0.0
2016-Dec-01 10:33N 51°20' E 003°49'0 0.0
2016-Dec-01 09:33N 51°20' E 003°49'0 0.0
2016-Dec-01 08:33N 51°20' E 003°49'0 0.0
2016-Dec-01 07:33N 51°20' E 003°49'0 0.0
2016-Dec-01 06:33N 51°20' E 003°49'0 0.0
2016-Dec-01 05:33N 51°20' E 003°49'0 0.0
2016-Dec-01 04:33N 51°20' E 003°49'0 0.0
2016-Dec-01 03:33N 51°20' E 003°49'0 0.0
2016-Dec-01 02:33N 51°20' E 003°49'0 0.0
2016-Dec-01 01:33N 51°20' E 003°49'0 0.0
2016-Dec-01 00:33N 51°20' E 003°49'0 0.0
2016-Nov-30 23:33N 51°20' E 003°49'1 0.7
2016-Nov-30 22:33N 51°20' E 003°49'2 2.3
2016-Nov-30 21:33N 51°17' E 003°50'7 6.6
2016-Nov-30 20:33N 51°11' E 003°48'2 1.9
2016-Nov-30 19:33N 51°09' E 003°47'4 4.2
2016-Nov-30 18:33N 51°13' E 003°48'5 4.6
2016-Nov-30 17:34N 51°18' E 003°50'1 1.2
2016-Nov-30 16:33N 51°19' E 003°50'0 0.2
2016-Nov-30 15:33N 51°19' E 003°50'1 0.9
2016-Nov-30 14:33N 51°20' E 003°49'2 2.1
2016-Nov-30 13:33N 51°21' E 003°46'2 1.8
2016-Nov-30 12:33N 51°20' E 003°49'0 0.0
2016-Nov-30 11:33N 51°20' E 003°49'0 0.0
2016-Nov-30 10:33N 51°20' E 003°49'0 0.0
2016-Nov-30 09:33N 51°20' E 003°49'0 0.0
2016-Nov-30 08:33N 51°20' E 003°49'1 0.5
2016-Nov-30 07:33N 51°20' E 003°49'2 1.9
2016-Nov-30 06:33N 51°18' E 003°50'7 6.8
2016-Nov-30 05:33N 51°11' E 003°48'0 0.5
2016-Nov-30 04:33N 51°12' E 003°48'5 5.1
2016-Nov-30 03:33N 51°17' E 003°50'3 3.3
2016-Nov-30 02:33N 51°20' E 003°49'2 1.5
2016-Nov-30 01:33N 51°21' E 003°51'1 1.4
2016-Nov-30 00:33N 51°20' E 003°49'0 0.0
2016-Nov-29 23:33N 51°20' E 003°49'0 0.0
2016-Nov-29 22:33N 51°20' E 003°49'0 0.0
2016-Nov-29 21:33N 51°20' E 003°49'0 0.0
2016-Nov-29 20:33N 51°20' E 003°49'0 0.0
2016-Nov-29 19:33N 51°20' E 003°49'0 0.0
2016-Nov-29 18:33N 51°20' E 003°49'0 0.0
2016-Nov-29 17:33N 51°20' E 003°49'2 1.7
2016-Nov-29 16:33N 51°21' E 003°52'0 0.1
2016-Nov-29 15:33N 51°21' E 003°51'1 0.8
2016-Nov-29 14:33N 51°20' E 003°50'1 1.1
2016-Nov-29 13:33N 51°20' E 003°49'1 1.3
2016-Nov-29 12:33N 51°19' E 003°50'0 0.3
2016-Nov-29 11:33N 51°19' E 003°50'1 1.1
2016-Nov-29 10:33N 51°20' E 003°49'1 0.8
2016-Nov-29 09:33N 51°19' E 003°50'3 2.7
2016-Nov-29 08:33N 51°17' E 003°51'1 0.8
2016-Nov-29 07:33N 51°16' E 003°50'7 6.5
2016-Nov-29 06:33N 51°10' E 003°47'0 0.4
2016-Nov-29 05:33N 51°10' E 003°48'6 6.3
2016-Nov-29 04:33N 51°16' E 003°50'4 3.8
2016-Nov-29 03:33N 51°20' E 003°49'2 2.2
2016-Nov-29 02:33N 51°21' E 003°46'2 1.9
2016-Nov-29 01:33N 51°20' E 003°49'0 0.0
2016-Nov-29 00:33N 51°20' E 003°49'0 0.0
2016-Nov-28 23:33N 51°20' E 003°49'0 0.0
2016-Nov-28 22:33N 51°20' E 003°49'0 0.0
2016-Nov-28 21:33N 51°20' E 003°49'0 0.0
2016-Nov-28 20:33N 51°20' E 003°49'0 0.0
2016-Nov-28 19:33N 51°20' E 003°49'0 0.0
2016-Nov-28 18:33N 51°20' E 003°49'0 0.0
2016-Nov-28 17:33N 51°20' E 003°49'0 0.0
2016-Nov-28 16:33N 51°20' E 003°49'0 0.0
2016-Nov-28 15:33N 51°20' E 003°49'0 0.0
2016-Nov-28 14:33N 51°20' E 003°49'8 8.1
2016-Nov-28 13:33N 51°26' E 003°40'1 1.2
2016-Nov-28 12:33N 51°27' E 003°41'0 0.2
2016-Nov-28 11:33N 51°28' E 003°41'0 0.0
2016-Nov-28 10:33N 51°28' E 003°41'0 0.0
2016-Nov-28 09:33N 51°28' E 003°41'0 0.0
2016-Nov-28 08:33N 51°28' E 003°41'0 0.0
2016-Nov-28 07:33N 51°28' E 003°41'0 0.0
2016-Nov-28 06:33N 51°28' E 003°41'0 0.2
2016-Nov-28 05:33N 51°27' E 003°41'3 3.3
2016-Nov-28 04:33N 51°25' E 003°44'3 2.9
2016-Nov-28 03:33N 51°27' E 003°40'1 1.2
2016-Nov-28 02:33N 51°28' E 003°41'0 0.0
2016-Nov-28 01:33N 51°28' E 003°41'0 0.0
2016-Nov-28 00:33N 51°28' E 003°41'0 0.0
2016-Nov-27 23:33N 51°28' E 003°41'0 0.0
2016-Nov-27 22:33N 51°28' E 003°41'0 0.0
2016-Nov-27 21:33N 51°28' E 003°41'0 0.0
2016-Nov-27 20:33N 51°28' E 003°41'0 0.0
2016-Nov-27 19:33N 51°28' E 003°41'0 0.0
2016-Nov-27 18:30N 51°28' E 003°41'0 0.0
2016-Nov-27 17:33N 51°28' E 003°41'0 0.0
2016-Nov-27 16:33N 51°28' E 003°41'0 0.0
2016-Nov-27 15:33N 51°28' E 003°41'0 0.0
2016-Nov-27 14:33N 51°28' E 003°41'0 0.0
2016-Nov-27 13:33N 51°28' E 003°41'0 0.0
2016-Nov-27 12:33N 51°28' E 003°41'0 0.0
2016-Nov-27 11:33N 51°28' E 003°41'0 0.0
2016-Nov-27 10:33N 51°28' E 003°41'0 0.0
2016-Nov-27 09:33N 51°28' E 003°41'0 0.0
2016-Nov-27 08:33N 51°28' E 003°41'0 0.0
2016-Nov-27 07:33N 51°28' E 003°41'0 0.0
2016-Nov-27 06:33N 51°28' E 003°41'0 0.0
2016-Nov-27 05:33N 51°28' E 003°41'0 0.0
2016-Nov-27 04:33N 51°28' E 003°41'0 0.0
2016-Nov-27 03:33N 51°28' E 003°41'0 0.0
2016-Nov-27 02:33N 51°28' E 003°41'0 0.0
2016-Nov-27 01:33N 51°28' E 003°41'0 0.0
2016-Nov-27 00:33N 51°28' E 003°41'0 0.0
2016-Nov-26 23:33N 51°28' E 003°41'0 0.0
2016-Nov-26 22:33N 51°28' E 003°41'0 0.0
2016-Nov-26 21:33N 51°28' E 003°41'0 0.0
2016-Nov-26 20:33N 51°28' E 003°41'0 0.0
2016-Nov-26 19:33N 51°28' E 003°41'0 0.0
2016-Nov-26 18:33N 51°28' E 003°41'0 0.0
2016-Nov-26 17:33N 51°28' E 003°41'0 0.0
2016-Nov-26 16:33N 51°28' E 003°41'0 0.0
2016-Nov-26 15:33N 51°28' E 003°41'0 0.0
2016-Nov-26 14:33N 51°28' E 003°41'0 0.0
2016-Nov-26 13:33N 51°28' E 003°41'0 0.0
2016-Nov-26 12:33N 51°28' E 003°41'0 0.0
2016-Nov-26 11:33N 51°28' E 003°41'0 0.0
2016-Nov-26 10:33N 51°28' E 003°41'0 0.0
2016-Nov-26 09:33N 51°28' E 003°41'0 0.0
2016-Nov-26 08:33N 51°28' E 003°41'0 0.0
2016-Nov-26 07:33N 51°28' E 003°41'0 0.0
2016-Nov-26 06:33N 51°28' E 003°41'0 0.0
2016-Nov-26 05:33N 51°28' E 003°41'0 0.0
2016-Nov-26 04:33N 51°28' E 003°41'0 0.0
2016-Nov-26 03:33N 51°28' E 003°41'0 0.0
2016-Nov-26 02:33N 51°28' E 003°41'0 0.0
2016-Nov-26 01:33N 51°28' E 003°41'0 0.0
2016-Nov-26 00:33N 51°28' E 003°41'0 0.0
2016-Nov-25 23:33N 51°28' E 003°41'0 0.0
2016-Nov-25 22:33N 51°28' E 003°41'1 1.3
2016-Nov-25 21:33N 51°28' E 003°43'1 1.2
2016-Nov-25 20:33N 51°28' E 003°41'0 0.1
2016-Nov-25 19:33N 51°28' E 003°41'0 0.0
2016-Nov-25 18:33N 51°28' E 003°41'2 1.8
2016-Nov-25 17:33N 51°27' E 003°44'0 0.0
2016-Nov-25 16:33N 51°27' E 003°44'2 1.7
2016-Nov-25 15:33N 51°27' E 003°41'0 0.2
2016-Nov-25 14:33N 51°28' E 003°41'0 0.1
2016-Nov-25 13:33N 51°28' E 003°40'0 0.3
2016-Nov-25 12:33N 51°27' E 003°40'0 0.3
2016-Nov-25 11:33N 51°28' E 003°40'0 0.0
2016-Nov-25 10:33N 51°28' E 003°40'0 0.0
2016-Nov-25 09:33N 51°28' E 003°40'1 1.4
2016-Nov-25 08:33N 51°29' E 003°42'1 1.4
2016-Nov-25 07:33N 51°28' E 003°40'0 0.0
2016-Nov-25 06:33N 51°28' E 003°40'0 0.0
2016-Nov-25 05:33N 51°28' E 003°40'0 0.0
2016-Nov-25 04:33N 51°28' E 003°40'0 0.0
2016-Nov-25 03:33N 51°28' E 003°40'0 0.0
2016-Nov-25 02:33N 51°28' E 003°40'0 0.0
2016-Nov-25 01:33N 51°28' E 003°40'2 1.7
2016-Nov-25 00:33N 51°27' E 003°43'2 1.7
2016-Nov-24 23:33N 51°28' E 003°40'0 0.0
2016-Nov-24 22:33N 51°28' E 003°40'0 0.0
2016-Nov-24 21:33N 51°28' E 003°40'0 0.0
2016-Nov-24 20:33N 51°28' E 003°40'0 0.0
2016-Nov-24 19:33N 51°28' E 003°40'0 0.0
2016-Nov-24 18:33N 51°28' E 003°40'0 0.0
2016-Nov-24 17:33N 51°28' E 003°40'0 0.0
2016-Nov-24 16:33N 51°28' E 003°40'0 0.0
2016-Nov-24 15:33N 51°28' E 003°40'0 0.0
2016-Nov-24 14:33N 51°28' E 003°40'0 0.0
2016-Nov-24 13:33N 51°28' E 003°40'0 0.0
2016-Nov-24 12:33N 51°28' E 003°40'1 1.4
2016-Nov-24 11:33N 51°28' E 003°42'1 1.4
2016-Nov-24 10:33N 51°28' E 003°40'0 0.0
2016-Nov-24 09:33N 51°28' E 003°40'0 0.3
2016-Nov-24 08:33N 51°28' E 003°41'1 0.7
2016-Nov-24 07:33N 51°27' E 003°40'1 0.6
2016-Nov-24 06:33N 51°28' E 003°40'1 1.4
2016-Nov-24 05:33N 51°27' E 003°43'  

Dump ship's entire track history